sensor_id;sensor_type;location;lat;lon;timestamp;temperature;humidity
15341;DHT22;7770;52.158;5.372;2023-03-01T00:02:35;-1.30;99.90
15341;DHT22;7770;52.158;5.372;2023-03-01T00:05:21;-1.30;99.90
15341;DHT22;7770;52.158;5.372;2023-03-01T00:08:07;-1.30;99.90
15341;DHT22;7770;52.158;5.372;2023-03-01T00:11:04;-1.30;99.90
15341;DHT22;7770;52.158;5.372;2023-03-01T00:13:58;-1.40;99.90
15341;DHT22;7770;52.158;5.372;2023-03-01T00:16:46;-1.30;99.90
15341;DHT22;7770;52.158;5.372;2023-03-01T00:19:32;-1.40;99.90
15341;DHT22;7770;52.158;5.372;2023-03-01T00:22:18;-1.40;99.90
15341;DHT22;7770;52.158;5.372;2023-03-01T00:25:05;-1.40;99.90
15341;DHT22;7770;52.158;5.372;2023-03-01T00:27:51;-1.50;99.90
15341;DHT22;7770;52.158;5.372;2023-03-01T00:30:37;-1.50;99.90
15341;DHT22;7770;52.158;5.372;2023-03-01T00:33:23;-1.50;99.90
15341;DHT22;7770;52.158;5.372;2023-03-01T00:36:09;-1.50;99.90
15341;DHT22;7770;52.158;5.372;2023-03-01T00:38:56;-1.50;99.90
15341;DHT22;7770;52.158;5.372;2023-03-01T00:41:43;-1.50;99.90
15341;DHT22;7770;52.158;5.372;2023-03-01T00:44:29;-1.60;99.90
15341;DHT22;7770;52.158;5.372;2023-03-01T00:47:15;-1.60;99.90
15341;DHT22;7770;52.158;5.372;2023-03-01T00:50:02;-1.60;99.90
15341;DHT22;7770;52.158;5.372;2023-03-01T00:52:52;-1.60;99.90
15341;DHT22;7770;52.158;5.372;2023-03-01T00:55:39;-1.60;99.90
15341;DHT22;7770;52.158;5.372;2023-03-01T00:58:26;-1.70;99.90
15341;DHT22;7770;52.158;5.372;2023-03-01T01:01:15;-1.70;99.90
15341;DHT22;7770;52.158;5.372;2023-03-01T01:04:11;-1.70;99.90
15341;DHT22;7770;52.158;5.372;2023-03-01T01:06:58;-1.70;99.90
15341;DHT22;7770;52.158;5.372;2023-03-01T01:09:44;-1.70;99.90
15341;DHT22;7770;52.158;5.372;2023-03-01T01:12:30;-1.70;99.90
15341;DHT22;7770;52.158;5.372;2023-03-01T01:15:16;-1.70;99.90
15341;DHT22;7770;52.158;5.372;2023-03-01T01:18:02;-1.70;99.90
15341;DHT22;7770;52.158;5.372;2023-03-01T01:20:48;-1.70;99.90
15341;DHT22;7770;52.158;5.372;2023-03-01T01:23:34;-1.80;99.90
15341;DHT22;7770;52.158;5.372;2023-03-01T01:26:32;-1.80;99.90
15341;DHT22;7770;52.158;5.372;2023-03-01T01:29:18;-1.80;99.90
15341;DHT22;7770;52.158;5.372;2023-03-01T01:32:05;-1.80;99.90
15341;DHT22;7770;52.158;5.372;2023-03-01T01:34:50;-1.90;99.90
15341;DHT22;7770;52.158;5.372;2023-03-01T01:37:36;-1.90;99.90
15341;DHT22;7770;52.158;5.372;2023-03-01T01:40:22;-1.90;99.90
15341;DHT22;7770;52.158;5.372;2023-03-01T01:43:24;-2.00;99.90
15341;DHT22;7770;52.158;5.372;2023-03-01T01:46:31;-2.00;99.90
15341;DHT22;7770;52.158;5.372;2023-03-01T01:49:38;-2.00;99.90
15341;DHT22;7770;52.158;5.372;2023-03-01T01:52:32;-2.00;99.90
15341;DHT22;7770;52.158;5.372;2023-03-01T01:55:24;-2.00;99.90
15341;DHT22;7770;52.158;5.372;2023-03-01T01:58:15;-2.00;99.90
15341;DHT22;7770;52.158;5.372;2023-03-01T02:01:04;-2.00;99.90
15341;DHT22;7770;52.158;5.372;2023-03-01T02:03:51;-2.10;99.90
15341;DHT22;7770;52.158;5.372;2023-03-01T02:06:41;-2.10;99.90
15341;DHT22;7770;52.158;5.372;2023-03-01T02:09:31;-2.20;99.90
15341;DHT22;7770;52.158;5.372;2023-03-01T02:12:21;-2.10;99.90
15341;DHT22;7770;52.158;5.372;2023-03-01T02:15:09;-2.20;99.90
15341;DHT22;7770;52.158;5.372;2023-03-01T02:17:56;-2.20;99.90
15341;DHT22;7770;52.158;5.372;2023-03-01T02:23:47;-2.20;99.90
15341;DHT22;7770;52.158;5.372;2023-03-01T02:26:34;-2.30;99.90
15341;DHT22;7770;52.158;5.372;2023-03-01T02:29:25;-2.30;99.90
15341;DHT22;7770;52.158;5.372;2023-03-01T02:32:13;-2.30;99.90
15341;DHT22;7770;52.158;5.372;2023-03-01T02:35:01;-2.30;99.90
15341;DHT22;7770;52.158;5.372;2023-03-01T02:37:48;-2.40;99.90
15341;DHT22;7770;52.158;5.372;2023-03-01T02:40:36;-2.40;99.90
15341;DHT22;7770;52.158;5.372;2023-03-01T02:43:27;-2.40;99.90
15341;DHT22;7770;52.158;5.372;2023-03-01T02:46:21;-2.40;99.90
15341;DHT22;7770;52.158;5.372;2023-03-01T02:49:27;-2.40;99.90
15341;DHT22;7770;52.158;5.372;2023-03-01T02:55:38;-2.50;99.90
15341;DHT22;7770;52.158;5.372;2023-03-01T02:58:24;-2.50;99.90
15341;DHT22;7770;52.158;5.372;2023-03-01T03:01:12;-2.50;99.90
15341;DHT22;7770;52.158;5.372;2023-03-01T03:04:00;-2.50;99.90
15341;DHT22;7770;52.158;5.372;2023-03-01T03:06:48;-2.50;99.90
15341;DHT22;7770;52.158;5.372;2023-03-01T03:09:35;-2.50;99.90
15341;DHT22;7770;52.158;5.372;2023-03-01T03:12:21;-2.50;99.90
15341;DHT22;7770;52.158;5.372;2023-03-01T03:15:09;-2.50;99.90
15341;DHT22;7770;52.158;5.372;2023-03-01T03:17:58;-2.50;99.90
15341;DHT22;7770;52.158;5.372;2023-03-01T03:20:45;-2.60;99.90
15341;DHT22;7770;52.158;5.372;2023-03-01T03:23:31;-2.60;99.90
15341;DHT22;7770;52.158;5.372;2023-03-01T03:26:17;-2.60;99.90
15341;DHT22;7770;52.158;5.372;2023-03-01T03:29:03;-2.60;99.90
15341;DHT22;7770;52.158;5.372;2023-03-01T03:31:49;-2.60;99.90
15341;DHT22;7770;52.158;5.372;2023-03-01T03:34:35;-2.70;99.90
15341;DHT22;7770;52.158;5.372;2023-03-01T03:37:21;-2.70;99.90
15341;DHT22;7770;52.158;5.372;2023-03-01T03:40:27;-2.70;99.90
15341;DHT22;7770;52.158;5.372;2023-03-01T03:43:22;-2.70;99.90
15341;DHT22;7770;52.158;5.372;2023-03-01T03:46:10;-2.70;99.90
15341;DHT22;7770;52.158;5.372;2023-03-01T03:48:56;-2.70;99.90
15341;DHT22;7770;52.158;5.372;2023-03-01T03:51:45;-2.70;99.90
15341;DHT22;7770;52.158;5.372;2023-03-01T03:54:32;-2.70;99.90
15341;DHT22;7770;52.158;5.372;2023-03-01T03:57:18;-2.70;99.90
15341;DHT22;7770;52.158;5.372;2023-03-01T04:00:05;-2.80;99.90
15341;DHT22;7770;52.158;5.372;2023-03-01T04:02:59;-2.80;99.90
15341;DHT22;7770;52.158;5.372;2023-03-01T04:05:46;-2.80;99.90
15341;DHT22;7770;52.158;5.372;2023-03-01T04:08:33;-2.80;99.90
15341;DHT22;7770;52.158;5.372;2023-03-01T04:11:19;-2.80;99.90
15341;DHT22;7770;52.158;5.372;2023-03-01T04:14:13;-2.80;99.90
15341;DHT22;7770;52.158;5.372;2023-03-01T04:16:59;-2.80;99.90
15341;DHT22;7770;52.158;5.372;2023-03-01T04:19:45;-2.80;99.90
15341;DHT22;7770;52.158;5.372;2023-03-01T04:22:34;-2.80;99.90
15341;DHT22;7770;52.158;5.372;2023-03-01T04:25:20;-2.80;99.90
15341;DHT22;7770;52.158;5.372;2023-03-01T04:28:08;-2.80;99.90
15341;DHT22;7770;52.158;5.372;2023-03-01T04:30:56;-2.80;99.90
15341;DHT22;7770;52.158;5.372;2023-03-01T04:33:45;-2.80;99.90
15341;DHT22;7770;52.158;5.372;2023-03-01T04:36:32;-2.90;99.90
15341;DHT22;7770;52.158;5.372;2023-03-01T04:39:21;-2.90;99.90
15341;DHT22;7770;52.158;5.372;2023-03-01T04:42:07;-2.90;99.90
15341;DHT22;7770;52.158;5.372;2023-03-01T04:44:53;-2.90;99.90
15341;DHT22;7770;52.158;5.372;2023-03-01T04:47:41;-2.90;99.90
15341;DHT22;7770;52.158;5.372;2023-03-01T04:50:28;-3.00;99.90
15341;DHT22;7770;52.158;5.372;2023-03-01T04:53:15;-3.00;99.90
15341;DHT22;7770;52.158;5.372;2023-03-01T04:56:01;-3.00;99.90
15341;DHT22;7770;52.158;5.372;2023-03-01T04:58:47;-3.00;99.90
15341;DHT22;7770;52.158;5.372;2023-03-01T05:01:33;-3.00;99.90
15341;DHT22;7770;52.158;5.372;2023-03-01T05:04:24;-3.00;99.90
15341;DHT22;7770;52.158;5.372;2023-03-01T05:07:10;-3.10;99.90
15341;DHT22;7770;52.158;5.372;2023-03-01T05:09:58;-3.10;99.90
15341;DHT22;7770;52.158;5.372;2023-03-01T05:12:44;-3.10;99.90
15341;DHT22;7770;52.158;5.372;2023-03-01T05:15:31;-3.10;99.90
15341;DHT22;7770;52.158;5.372;2023-03-01T05:18:17;-3.20;99.90
15341;DHT22;7770;52.158;5.372;2023-03-01T05:21:11;-3.20;99.90
15341;DHT22;7770;52.158;5.372;2023-03-01T05:23:58;-3.20;99.90
15341;DHT22;7770;52.158;5.372;2023-03-01T05:26:44;-3.20;99.90
15341;DHT22;7770;52.158;5.372;2023-03-01T05:29:33;-3.20;99.90
15341;DHT22;7770;52.158;5.372;2023-03-01T05:32:20;-3.30;99.90
15341;DHT22;7770;52.158;5.372;2023-03-01T05:35:06;-3.30;99.90
15341;DHT22;7770;52.158;5.372;2023-03-01T05:37:52;-3.30;99.90
15341;DHT22;7770;52.158;5.372;2023-03-01T05:40:39;-3.40;99.90
15341;DHT22;7770;52.158;5.372;2023-03-01T05:43:26;-3.40;99.90
15341;DHT22;7770;52.158;5.372;2023-03-01T05:46:16;-3.40;99.90
15341;DHT22;7770;52.158;5.372;2023-03-01T05:49:02;-3.40;99.90
15341;DHT22;7770;52.158;5.372;2023-03-01T05:51:50;-3.40;99.90
15341;DHT22;7770;52.158;5.372;2023-03-01T05:54:37;-3.50;99.90
15341;DHT22;7770;52.158;5.372;2023-03-01T05:57:24;-3.50;99.90
15341;DHT22;7770;52.158;5.372;2023-03-01T06:00:12;-3.50;99.90
15341;DHT22;7770;52.158;5.372;2023-03-01T06:03:00;-3.50;99.90
15341;DHT22;7770;52.158;5.372;2023-03-01T06:05:46;-3.50;99.90
15341;DHT22;7770;52.158;5.372;2023-03-01T06:08:32;-3.50;99.90
15341;DHT22;7770;52.158;5.372;2023-03-01T06:11:19;-3.50;99.90
15341;DHT22;7770;52.158;5.372;2023-03-01T06:14:07;-3.50;99.90
15341;DHT22;7770;52.158;5.372;2023-03-01T06:16:53;-3.50;99.90
15341;DHT22;7770;52.158;5.372;2023-03-01T06:19:39;-3.50;99.90
15341;DHT22;7770;52.158;5.372;2023-03-01T06:22:26;-3.50;99.90
15341;DHT22;7770;52.158;5.372;2023-03-01T06:25:14;-3.40;99.90
15341;DHT22;7770;52.158;5.372;2023-03-01T06:28:02;-3.40;99.90
15341;DHT22;7770;52.158;5.372;2023-03-01T06:30:50;-3.50;99.90
15341;DHT22;7770;52.158;5.372;2023-03-01T06:33:37;-3.50;99.90
15341;DHT22;7770;52.158;5.372;2023-03-01T06:36:23;-3.40;99.90
15341;DHT22;7770;52.158;5.372;2023-03-01T06:39:09;-3.40;99.90
15341;DHT22;7770;52.158;5.372;2023-03-01T06:41:55;-3.40;99.90
15341;DHT22;7770;52.158;5.372;2023-03-01T06:44:42;-3.40;99.90
15341;DHT22;7770;52.158;5.372;2023-03-01T06:47:28;-3.30;99.90
15341;DHT22;7770;52.158;5.372;2023-03-01T06:50:14;-3.30;99.90
15341;DHT22;7770;52.158;5.372;2023-03-01T06:53:02;-3.20;99.90
15341;DHT22;7770;52.158;5.372;2023-03-01T06:55:54;-3.10;99.90
15341;DHT22;7770;52.158;5.372;2023-03-01T06:58:43;-3.10;99.90
15341;DHT22;7770;52.158;5.372;2023-03-01T07:01:30;-3.00;99.90
15341;DHT22;7770;52.158;5.372;2023-03-01T07:04:16;-2.90;99.90
15341;DHT22;7770;52.158;5.372;2023-03-01T07:07:02;-2.80;99.90
15341;DHT22;7770;52.158;5.372;2023-03-01T07:09:49;-2.70;99.90
15341;DHT22;7770;52.158;5.372;2023-03-01T07:12:35;-2.70;99.90
15341;DHT22;7770;52.158;5.372;2023-03-01T07:15:21;-2.60;99.90
15341;DHT22;7770;52.158;5.372;2023-03-01T07:18:07;-2.50;99.90
15341;DHT22;7770;52.158;5.372;2023-03-01T07:20:53;-2.40;99.90
15341;DHT22;7770;52.158;5.372;2023-03-01T07:23:39;-1.60;99.90
15341;DHT22;7770;52.158;5.372;2023-03-01T07:26:26;-0.70;99.90
15341;DHT22;7770;52.158;5.372;2023-03-01T07:29:12;-0.70;99.90
15341;DHT22;7770;52.158;5.372;2023-03-01T07:31:58;-0.60;99.90
15341;DHT22;7770;52.158;5.372;2023-03-01T07:34:44;-0.50;99.90
15341;DHT22;7770;52.158;5.372;2023-03-01T07:37:30;-0.30;99.90
15341;DHT22;7770;52.158;5.372;2023-03-01T07:40:16;-0.10;99.90
15341;DHT22;7770;52.158;5.372;2023-03-01T07:43:02;0.20;99.90
15341;DHT22;7770;52.158;5.372;2023-03-01T07:45:49;1.40;99.90
15341;DHT22;7770;52.158;5.372;2023-03-01T07:48:35;2.10;99.90
15341;DHT22;7770;52.158;5.372;2023-03-01T07:51:21;2.80;99.90
15341;DHT22;7770;52.158;5.372;2023-03-01T07:54:07;3.20;99.90
15341;DHT22;7770;52.158;5.372;2023-03-01T07:56:53;3.10;99.90
15341;DHT22;7770;52.158;5.372;2023-03-01T07:59:40;2.90;99.90
15341;DHT22;7770;52.158;5.372;2023-03-01T08:02:35;3.20;99.90
15341;DHT22;7770;52.158;5.372;2023-03-01T08:05:21;4.00;99.90
15341;DHT22;7770;52.158;5.372;2023-03-01T08:08:07;4.70;99.90
15341;DHT22;7770;52.158;5.372;2023-03-01T08:10:56;5.70;99.90
15341;DHT22;7770;52.158;5.372;2023-03-01T08:13:43;6.00;99.90
15341;DHT22;7770;52.158;5.372;2023-03-01T08:16:29;6.00;99.90
15341;DHT22;7770;52.158;5.372;2023-03-01T08:19:15;6.00;99.90
15341;DHT22;7770;52.158;5.372;2023-03-01T08:22:02;6.70;99.90
15341;DHT22;7770;52.158;5.372;2023-03-01T08:24:48;7.50;99.90
15341;DHT22;7770;52.158;5.372;2023-03-01T08:27:34;7.90;99.90
15341;DHT22;7770;52.158;5.372;2023-03-01T08:30:20;7.80;99.90
15341;DHT22;7770;52.158;5.372;2023-03-01T08:33:06;8.70;99.90
15341;DHT22;7770;52.158;5.372;2023-03-01T08:35:52;9.70;98.50
15341;DHT22;7770;52.158;5.372;2023-03-01T08:38:38;10.40;97.50
15341;DHT22;7770;52.158;5.372;2023-03-01T08:41:24;11.40;95.40
15341;DHT22;7770;52.158;5.372;2023-03-01T08:44:13;11.70;94.80
15341;DHT22;7770;52.158;5.372;2023-03-01T08:46:59;12.40;94.00
15341;DHT22;7770;52.158;5.372;2023-03-01T08:49:45;12.60;93.30
15341;DHT22;7770;52.158;5.372;2023-03-01T08:52:32;13.20;92.40
15341;DHT22;7770;52.158;5.372;2023-03-01T08:55:18;13.80;90.70
15341;DHT22;7770;52.158;5.372;2023-03-01T08:58:05;13.90;88.20
15341;DHT22;7770;52.158;5.372;2023-03-01T09:00:51;13.80;89.20
15341;DHT22;7770;52.158;5.372;2023-03-01T09:03:37;13.60;88.60
15341;DHT22;7770;52.158;5.372;2023-03-01T09:06:23;13.90;86.60
15341;DHT22;7770;52.158;5.372;2023-03-01T09:09:15;14.60;87.60
15341;DHT22;7770;52.158;5.372;2023-03-01T09:12:03;15.20;84.60
15341;DHT22;7770;52.158;5.372;2023-03-01T09:14:49;15.60;82.60
15341;DHT22;7770;52.158;5.372;2023-03-01T09:17:36;15.60;82.10
15341;DHT22;7770;52.158;5.372;2023-03-01T09:20:22;16.00;81.00
15341;DHT22;7770;52.158;5.372;2023-03-01T09:23:08;14.80;82.80
15341;DHT22;7770;52.158;5.372;2023-03-01T09:25:54;15.30;82.60
15341;DHT22;7770;52.158;5.372;2023-03-01T09:28:40;14.70;80.20
15341;DHT22;7770;52.158;5.372;2023-03-01T09:31:30;15.30;83.20
15341;DHT22;7770;52.158;5.372;2023-03-01T09:34:16;15.30;80.40
15341;DHT22;7770;52.158;5.372;2023-03-01T09:37:07;15.20;82.20
15341;DHT22;7770;52.158;5.372;2023-03-01T09:39:53;15.50;80.00
15341;DHT22;7770;52.158;5.372;2023-03-01T09:42:51;14.50;80.90
15341;DHT22;7770;52.158;5.372;2023-03-01T09:45:43;12.00;85.60
15341;DHT22;7770;52.158;5.372;2023-03-01T09:48:39;11.40;86.60
15341;DHT22;7770;52.158;5.372;2023-03-01T09:51:34;13.10;84.70
15341;DHT22;7770;52.158;5.372;2023-03-01T09:54:21;13.20;83.70
15341;DHT22;7770;52.158;5.372;2023-03-01T09:57:20;13.00;83.20
15341;DHT22;7770;52.158;5.372;2023-03-01T10:00:15;12.90;84.60
15341;DHT22;7770;52.158;5.372;2023-03-01T10:03:51;13.90;83.50
15341;DHT22;7770;52.158;5.372;2023-03-01T10:09:55;13.70;82.40
15341;DHT22;7770;52.158;5.372;2023-03-01T10:12:43;14.70;80.80
15341;DHT22;7770;52.158;5.372;2023-03-01T10:15:44;13.20;81.50
15341;DHT22;7770;52.158;5.372;2023-03-01T10:18:34;13.90;81.80
15341;DHT22;7770;52.158;5.372;2023-03-01T10:21:22;14.10;80.60
15341;DHT22;7770;52.158;5.372;2023-03-01T10:24:12;15.40;79.50
15341;DHT22;7770;52.158;5.372;2023-03-01T10:30:38;16.50;76.70
15341;DHT22;7770;52.158;5.372;2023-03-01T10:33:31;13.90;78.90
15341;DHT22;7770;52.158;5.372;2023-03-01T10:36:18;13.90;80.00
15341;DHT22;7770;52.158;5.372;2023-03-01T10:39:13;13.50;80.30
15341;DHT22;7770;52.158;5.372;2023-03-01T10:42:05;13.90;79.40
15341;DHT22;7770;52.158;5.372;2023-03-01T10:44:54;15.70;79.20
15341;DHT22;7770;52.158;5.372;2023-03-01T10:47:40;15.70;76.80
15341;DHT22;7770;52.158;5.372;2023-03-01T10:50:26;13.60;79.00
15341;DHT22;7770;52.158;5.372;2023-03-01T10:56:18;16.80;76.30
15341;DHT22;7770;52.158;5.372;2023-03-01T10:59:05;16.60;74.20
15341;DHT22;7770;52.158;5.372;2023-03-01T11:05:23;13.80;77.30
15341;DHT22;7770;52.158;5.372;2023-03-01T11:08:10;13.80;77.90
15341;DHT22;7770;52.158;5.372;2023-03-01T11:11:13;13.00;79.70
15341;DHT22;7770;52.158;5.372;2023-03-01T11:14:21;12.70;78.20
15341;DHT22;7770;52.158;5.372;2023-03-01T11:17:17;14.80;77.50
15341;DHT22;7770;52.158;5.372;2023-03-01T11:23:04;15.10;72.60
15341;DHT22;7770;52.158;5.372;2023-03-01T11:25:58;14.90;74.10
15341;DHT22;7770;52.158;5.372;2023-03-01T11:28:53;15.30;74.00
15341;DHT22;7770;52.158;5.372;2023-03-01T11:31:42;13.90;76.00
15341;DHT22;7770;52.158;5.372;2023-03-01T11:34:43;16.00;77.30
15341;DHT22;7770;52.158;5.372;2023-03-01T11:37:40;17.00;74.10
15341;DHT22;7770;52.158;5.372;2023-03-01T11:44:00;16.60;72.50
15341;DHT22;7770;52.158;5.372;2023-03-01T11:47:47;16.90;74.00
15341;DHT22;7770;52.158;5.372;2023-03-01T11:50:44;16.10;74.80
15341;DHT22;7770;52.158;5.372;2023-03-01T11:57:37;15.10;74.00
15341;DHT22;7770;52.158;5.372;2023-03-01T12:07:32;15.20;72.80
15341;DHT22;7770;52.158;5.372;2023-03-01T12:10:37;13.80;74.70
15341;DHT22;7770;52.158;5.372;2023-03-01T12:16:39;13.10;76.60
15341;DHT22;7770;52.158;5.372;2023-03-01T12:22:36;11.80;79.60
15341;DHT22;7770;52.158;5.372;2023-03-01T12:35:05;13.00;79.60
15341;DHT22;7770;52.158;5.372;2023-03-01T12:38:32;12.30;79.30
15341;DHT22;7770;52.158;5.372;2023-03-01T12:41:42;11.00;80.80
15341;DHT22;7770;52.158;5.372;2023-03-01T12:51:11;9.10;86.10
15341;DHT22;7770;52.158;5.372;2023-03-01T12:54:10;9.20;86.00
15341;DHT22;7770;52.158;5.372;2023-03-01T12:57:09;8.60;87.30
15341;DHT22;7770;52.158;5.372;2023-03-01T13:06:58;8.40;88.60
15341;DHT22;7770;52.158;5.372;2023-03-01T13:16:40;8.00;89.60
15341;DHT22;7770;52.158;5.372;2023-03-01T13:19:29;8.30;88.20
15341;DHT22;7770;52.158;5.372;2023-03-01T13:22:35;8.10;88.20
15341;DHT22;7770;52.158;5.372;2023-03-01T13:25:22;8.30;88.00
15341;DHT22;7770;52.158;5.372;2023-03-01T13:34:48;8.00;86.70
15341;DHT22;7770;52.158;5.372;2023-03-01T13:37:45;7.90;87.20
15341;DHT22;7770;52.158;5.372;2023-03-01T13:43:46;7.90;88.80
15341;DHT22;7770;52.158;5.372;2023-03-01T13:46:33;8.10;89.20
15341;DHT22;7770;52.158;5.372;2023-03-01T13:49:28;8.00;89.00
15341;DHT22;7770;52.158;5.372;2023-03-01T13:52:43;7.90;90.10
15341;DHT22;7770;52.158;5.372;2023-03-01T13:55:40;8.20;89.40
15341;DHT22;7770;52.158;5.372;2023-03-01T13:58:30;7.90;89.20
15341;DHT22;7770;52.158;5.372;2023-03-01T14:01:30;7.60;90.00
15341;DHT22;7770;52.158;5.372;2023-03-01T14:04:26;7.70;90.20
15341;DHT22;7770;52.158;5.372;2023-03-01T14:07:19;7.80;89.40
15341;DHT22;7770;52.158;5.372;2023-03-01T14:10:07;7.90;90.00
15341;DHT22;7770;52.158;5.372;2023-03-01T14:13:22;7.70;88.70
15341;DHT22;7770;52.158;5.372;2023-03-01T14:19:23;7.80;90.10
15341;DHT22;7770;52.158;5.372;2023-03-01T14:22:22;7.90;90.20
15341;DHT22;7770;52.158;5.372;2023-03-01T14:28:23;7.90;90.50
15341;DHT22;7770;52.158;5.372;2023-03-01T14:31:38;7.90;89.30
15341;DHT22;7770;52.158;5.372;2023-03-01T14:34:24;7.70;89.60
15341;DHT22;7770;52.158;5.372;2023-03-01T14:37:22;7.80;89.50
15341;DHT22;7770;52.158;5.372;2023-03-01T14:40:29;7.90;89.30
15341;DHT22;7770;52.158;5.372;2023-03-01T14:43:21;7.80;88.30
15341;DHT22;7770;52.158;5.372;2023-03-01T14:46:20;7.70;90.00
15341;DHT22;7770;52.158;5.372;2023-03-01T14:49:15;7.60;90.20
15341;DHT22;7770;52.158;5.372;2023-03-01T14:52:06;7.60;90.10
15341;DHT22;7770;52.158;5.372;2023-03-01T14:54:54;7.70;89.50
15341;DHT22;7770;52.158;5.372;2023-03-01T14:57:44;7.60;88.80
15341;DHT22;7770;52.158;5.372;2023-03-01T15:00:32;7.70;88.60
15341;DHT22;7770;52.158;5.372;2023-03-01T15:03:37;7.80;88.30
15341;DHT22;7770;52.158;5.372;2023-03-01T15:06:25;7.90;87.80
15341;DHT22;7770;52.158;5.372;2023-03-01T15:09:15;7.90;86.90
15341;DHT22;7770;52.158;5.372;2023-03-01T15:12:33;7.60;87.40
15341;DHT22;7770;52.158;5.372;2023-03-01T15:15:34;7.70;88.10
15341;DHT22;7770;52.158;5.372;2023-03-01T15:18:26;7.80;89.00
15341;DHT22;7770;52.158;5.372;2023-03-01T15:21:35;7.70;89.10
15341;DHT22;7770;52.158;5.372;2023-03-01T15:24:25;7.70;90.10
15341;DHT22;7770;52.158;5.372;2023-03-01T15:27:21;7.80;90.20
15341;DHT22;7770;52.158;5.372;2023-03-01T15:30:23;7.80;90.40
15341;DHT22;7770;52.158;5.372;2023-03-01T15:33:35;7.70;90.90
15341;DHT22;7770;52.158;5.372;2023-03-01T15:36:33;7.50;91.00
15341;DHT22;7770;52.158;5.372;2023-03-01T15:39:50;7.50;91.10
15341;DHT22;7770;52.158;5.372;2023-03-01T15:42:39;7.50;91.10
15341;DHT22;7770;52.158;5.372;2023-03-01T15:45:27;7.50;90.70
15341;DHT22;7770;52.158;5.372;2023-03-01T15:48:18;7.50;91.00
15341;DHT22;7770;52.158;5.372;2023-03-01T15:51:12;7.50;90.80
15341;DHT22;7770;52.158;5.372;2023-03-01T15:54:01;7.40;91.00
15341;DHT22;7770;52.158;5.372;2023-03-01T15:56:50;7.40;91.20
15341;DHT22;7770;52.158;5.372;2023-03-01T15:59:36;7.40;91.30
15341;DHT22;7770;52.158;5.372;2023-03-01T16:02:23;7.40;91.10
15341;DHT22;7770;52.158;5.372;2023-03-01T16:05:24;7.30;91.20
15341;DHT22;7770;52.158;5.372;2023-03-01T16:08:17;7.30;91.00
15341;DHT22;7770;52.158;5.372;2023-03-01T16:11:05;7.20;91.00
15341;DHT22;7770;52.158;5.372;2023-03-01T16:13:56;7.20;91.20
15341;DHT22;7770;52.158;5.372;2023-03-01T16:16:43;7.20;91.30
15341;DHT22;7770;52.158;5.372;2023-03-01T16:19:29;7.10;91.20
15341;DHT22;7770;52.158;5.372;2023-03-01T16:22:15;7.10;91.40
15341;DHT22;7770;52.158;5.372;2023-03-01T16:25:01;7.10;91.60
15341;DHT22;7770;52.158;5.372;2023-03-01T16:27:50;7.10;91.70
15341;DHT22;7770;52.158;5.372;2023-03-01T16:30:37;7.00;91.90
15341;DHT22;7770;52.158;5.372;2023-03-01T16:33:24;7.00;92.00
15341;DHT22;7770;52.158;5.372;2023-03-01T16:36:12;7.00;92.00
15341;DHT22;7770;52.158;5.372;2023-03-01T16:38:59;6.90;91.90
15341;DHT22;7770;52.158;5.372;2023-03-01T16:41:45;6.90;91.80
15341;DHT22;7770;52.158;5.372;2023-03-01T16:44:31;6.80;91.80
15341;DHT22;7770;52.158;5.372;2023-03-01T16:47:17;6.80;92.00
15341;DHT22;7770;52.158;5.372;2023-03-01T16:50:04;6.70;91.90
15341;DHT22;7770;52.158;5.372;2023-03-01T16:52:50;6.70;92.10
15341;DHT22;7770;52.158;5.372;2023-03-01T16:55:36;6.60;92.10
15341;DHT22;7770;52.158;5.372;2023-03-01T16:58:23;6.60;92.30
15341;DHT22;7770;52.158;5.372;2023-03-01T17:01:15;6.50;92.50
15341;DHT22;7770;52.158;5.372;2023-03-01T17:04:04;6.50;92.40
15341;DHT22;7770;52.158;5.372;2023-03-01T17:06:50;6.40;92.60
15341;DHT22;7770;52.158;5.372;2023-03-01T17:09:37;6.40;92.70
15341;DHT22;7770;52.158;5.372;2023-03-01T17:12:23;6.30;92.80
15341;DHT22;7770;52.158;5.372;2023-03-01T17:15:09;6.30;92.90
15341;DHT22;7770;52.158;5.372;2023-03-01T17:17:57;6.20;93.00
15341;DHT22;7770;52.158;5.372;2023-03-01T17:20:43;6.10;93.20
15341;DHT22;7770;52.158;5.372;2023-03-01T17:23:30;6.10;93.20
15341;DHT22;7770;52.158;5.372;2023-03-01T17:26:17;6.00;93.60
15341;DHT22;7770;52.158;5.372;2023-03-01T17:29:03;6.00;93.50
15341;DHT22;7770;52.158;5.372;2023-03-01T17:31:49;6.00;93.50
15341;DHT22;7770;52.158;5.372;2023-03-01T17:34:36;5.90;93.50
15341;DHT22;7770;52.158;5.372;2023-03-01T17:37:22;5.80;93.80
15341;DHT22;7770;52.158;5.372;2023-03-01T17:40:09;5.90;95.70
15341;DHT22;7770;52.158;5.372;2023-03-01T17:42:56;5.90;95.60
15341;DHT22;7770;52.158;5.372;2023-03-01T17:45:43;5.90;98.20
15341;DHT22;7770;52.158;5.372;2023-03-01T17:48:35;5.90;95.20
15341;DHT22;7770;52.158;5.372;2023-03-01T17:51:21;6.00;95.00
15341;DHT22;7770;52.158;5.372;2023-03-01T17:54:07;5.60;94.50
15341;DHT22;7770;52.158;5.372;2023-03-01T17:56:54;5.50;94.80
15341;DHT22;7770;52.158;5.372;2023-03-01T17:59:41;5.50;94.90
15341;DHT22;7770;52.158;5.372;2023-03-01T18:02:27;5.40;95.10
15341;DHT22;7770;52.158;5.372;2023-03-01T18:05:13;5.30;95.10
15341;DHT22;7770;52.158;5.372;2023-03-01T18:07:59;5.20;95.30
15341;DHT22;7770;52.158;5.372;2023-03-01T18:10:45;5.20;95.40
15341;DHT22;7770;52.158;5.372;2023-03-01T18:13:31;5.20;95.50
15341;DHT22;7770;52.158;5.372;2023-03-01T18:16:18;5.10;95.60
15341;DHT22;7770;52.158;5.372;2023-03-01T18:19:05;5.00;95.90
15341;DHT22;7770;52.158;5.372;2023-03-01T18:21:51;4.80;96.10
15341;DHT22;7770;52.158;5.372;2023-03-01T18:24:37;4.80;96.20
15341;DHT22;7770;52.158;5.372;2023-03-01T18:27:24;5.10;97.60
15341;DHT22;7770;52.158;5.372;2023-03-01T18:30:12;5.30;97.20
15341;DHT22;7770;52.158;5.372;2023-03-01T18:32:58;5.10;95.90
15341;DHT22;7770;52.158;5.372;2023-03-01T18:35:44;4.90;96.20
15341;DHT22;7770;52.158;5.372;2023-03-01T18:38:31;4.80;96.30
15341;DHT22;7770;52.158;5.372;2023-03-01T18:41:17;4.70;96.50
15341;DHT22;7770;52.158;5.372;2023-03-01T18:44:04;4.70;96.60
15341;DHT22;7770;52.158;5.372;2023-03-01T18:46:50;4.60;96.80
15341;DHT22;7770;52.158;5.372;2023-03-01T18:49:37;4.60;96.90
15341;DHT22;7770;52.158;5.372;2023-03-01T18:52:23;4.50;97.10
15341;DHT22;7770;52.158;5.372;2023-03-01T18:55:09;4.50;97.20
15341;DHT22;7770;52.158;5.372;2023-03-01T18:57:55;4.50;97.20
15341;DHT22;7770;52.158;5.372;2023-03-01T19:00:41;4.40;97.50
15341;DHT22;7770;52.158;5.372;2023-03-01T19:03:27;4.40;97.60
15341;DHT22;7770;52.158;5.372;2023-03-01T19:06:14;4.30;97.60
15341;DHT22;7770;52.158;5.372;2023-03-01T19:09:00;4.30;97.70
15341;DHT22;7770;52.158;5.372;2023-03-01T19:11:46;4.20;97.90
15341;DHT22;7770;52.158;5.372;2023-03-01T19:14:32;4.20;98.10
15341;DHT22;7770;52.158;5.372;2023-03-01T19:17:21;4.10;98.30
15341;DHT22;7770;52.158;5.372;2023-03-01T19:20:10;4.20;99.90
15341;DHT22;7770;52.158;5.372;2023-03-01T19:22:56;4.50;99.90
15341;DHT22;7770;52.158;5.372;2023-03-01T19:25:42;4.30;98.80
15341;DHT22;7770;52.158;5.372;2023-03-01T19:28:29;4.30;99.00
15341;DHT22;7770;52.158;5.372;2023-03-01T19:31:17;4.20;98.60
15341;DHT22;7770;52.158;5.372;2023-03-01T19:34:10;4.10;98.80
15341;DHT22;7770;52.158;5.372;2023-03-01T19:36:56;4.00;98.90
15341;DHT22;7770;52.158;5.372;2023-03-01T19:39:42;3.90;99.10
15341;DHT22;7770;52.158;5.372;2023-03-01T19:42:29;3.90;99.20
15341;DHT22;7770;52.158;5.372;2023-03-01T19:45:15;3.80;99.30
15341;DHT22;7770;52.158;5.372;2023-03-01T19:48:01;3.80;99.30